Time;durP1;ratioP1;P1;durP2;ratioP2;P2;SDS_P1;SDS_P2;PMS_P1;PMS_P2;Temp;Humidity;BMP_temperature;BMP_pressure;BME280_temperature;BME280_humidity;BME280_pressure;Samples;Min_cycle;Max_cycle;Signal;HPM_P1;HPM_P2
2023/02/16 05:06:35;;;;;;;;;72.33;55.00;;;;;;;;6117362;39;10000023;-57
2023/02/16 08:23:17;;;;;;;;;94.00;73.75;;;;;;;;6488933;39;8989;-59
2023/02/16 08:29:24;;;;;;;;;86.75;65.75;;;;;;;;6490936;46;8870;-60
2023/02/16 08:35:37;;;;;;;;;92.67;74.33;;;;;;;;6491947;31;8916;-60
2023/02/16 08:41:44;;;;;;;;;98.00;74.67;;;;;;;;6491336;46;8855;-59
2023/02/16 08:47:52;;;;;;;;;94.00;72.00;;;;;;;;6488235;39;8925;-60
2023/02/16 08:53:59;;;;;;;;;91.50;69.00;;;;;;;;6490140;36;8944;-61
2023/02/16 09:06:24;;;;;;;;;74.00;59.75;;;;;;;;6489968;39;8982;-61
2023/02/16 09:12:28;;;;;;;;;87.25;64.00;;;;;;;;6490927;31;8894;-61
2023/02/16 09:18:35;;;;;;;;;81.00;64.25;;;;;;;;6489766;31;9145;-60
2023/02/16 09:24:40;;;;;;;;;79.00;62.25;;;;;;;;6487820;39;8917;-61
2023/02/16 09:30:44;;;;;;;;;84.50;65.50;;;;;;;;6485452;31;8856;-61
2023/02/16 09:36:52;;;;;;;;;89.75;71.25;;;;;;;;6486741;39;8922;-61
2023/02/16 09:43:12;;;;;;;;;84.00;66.00;;;;;;;;6487887;39;9046;-61
2023/02/16 09:49:31;;;;;;;;;70.25;57.00;;;;;;;;6487775;39;8925;-62
2023/02/16 09:55:42;;;;;;;;;68.00;54.50;;;;;;;;6488735;39;8880;-61
2023/02/16 10:01:59;;;;;;;;;65.25;51.75;;;;;;;;6491229;31;8925;-60
2023/02/16 10:08:19;;;;;;;;;75.50;59.75;;;;;;;;6307406;36;10001178;-61
2023/02/16 10:14:48;;;;;;;;;72.00;58.00;;;;;;;;6488895;39;9973;-60
2023/02/16 10:20:55;;;;;;;;;81.50;58.50;;;;;;;;6489330;46;8926;-61
2023/02/16 10:27:10;;;;;;;;;76.25;62.25;;;;;;;;6488989;39;8898;-60
2023/02/16 10:33:45;;;;;;;;;83.00;64.75;;;;;;;;6489915;39;9058;-60
2023/02/16 10:40:11;;;;;;;;;89.75;69.75;;;;;;;;6489005;46;8902;-59
2023/02/16 10:46:22;;;;;;;;;87.50;67.00;;;;;;;;6487981;46;8965;-61
2023/02/16 10:52:31;;;;;;;;;77.75;60.75;;;;;;;;6489568;31;8906;-61
2023/02/16 10:58:38;;;;;;;;;82.00;66.25;;;;;;;;6488864;39;8874;-60
2023/02/16 11:04:45;;;;;;;;;86.75;66.00;;;;;;;;6488179;31;8941;-60
2023/02/16 11:10:52;;;;;;;;;79.75;62.00;;;;;;;;6488570;46;8914;-62
2023/02/16 11:17:12;;;;;;;;;84.25;64.25;;;;;;;;6487511;39;8982;-61
2023/02/16 11:23:24;;;;;;;;;84.00;66.75;;;;;;;;6489408;31;8898;-60
2023/02/16 11:29:30;;;;;;;;;89.75;69.25;;;;;;;;6488295;39;8990;-60
2023/02/16 11:35:42;;;;;;;;;87.00;68.25;;;;;;;;6488302;39;9564;-61
2023/02/16 11:42:04;;;;;;;;;78.50;62.50;;;;;;;;6488216;31;8887;-59
2023/02/16 11:48:11;;;;;;;;;76.25;62.00;;;;;;;;6489736;39;8858;-60
2023/02/16 11:54:16;;;;;;;;;75.75;59.25;;;;;;;;6487887;39;8930;-59
2023/02/16 12:00:25;;;;;;;;;83.25;64.25;;;;;;;;6487596;39;8898;-60
2023/02/16 12:06:31;;;;;;;;;79.00;60.75;;;;;;;;6488358;39;9081;-58
2023/02/16 12:12:36;;;;;;;;;82.75;61.50;;;;;;;;6488755;39;8850;-59
2023/02/16 12:18:55;;;;;;;;;73.25;59.50;;;;;;;;6487935;39;8919;-61
2023/02/16 12:25:22;;;;;;;;;71.75;56.00;;;;;;;;6488442;39;8885;-61
2023/02/16 12:31:50;;;;;;;;;63.50;50.50;;;;;;;;6486783;39;8895;-60
2023/02/16 12:38:09;;;;;;;;;69.25;55.00;;;;;;;;6487449;39;8874;-60
2023/02/16 12:44:16;;;;;;;;;69.00;53.00;;;;;;;;6488231;39;8879;-60
2023/02/16 12:50:28;;;;;;;;;56.25;45.50;;;;;;;;6488233;31;9659;-60
2023/02/16 12:56:49;;;;;;;;;66.75;54.00;;;;;;;;6487638;31;8839;-60
2023/02/16 13:03:15;;;;;;;;;66.75;52.75;;;;;;;;6486763;46;9013;-60
2023/02/16 13:09:18;;;;;;;;;65.25;53.50;;;;;;;;6486444;39;8904;-58
2023/02/16 13:15:30;;;;;;;;;61.75;51.25;;;;;;;;6487796;39;8936;-60
2023/02/16 13:22:14;;;;;;;;;64.75;53.75;;;;;;;;6487666;39;8998;-61
2023/02/16 13:28:21;;;;;;;;;65.25;54.00;;;;;;;;6485046;39;8902;-60
2023/02/16 13:34:46;;;;;;;;;73.25;57.25;;;;;;;;6487212;39;9512;-59
2023/02/16 13:41:09;;;;;;;;;45.25;42.50;;;;;;;;6485823;39;9915;-61
2023/02/16 13:47:22;;;;;;;;;67.75;53.50;;;;;;;;6488384;31;8980;-60
2023/02/16 13:53:49;;;;;;;;;66.00;53.00;;;;;;;;6485986;46;8953;-62
2023/02/16 14:00:04;;;;;;;;;66.75;53.50;;;;;;;;6486028;31;8899;-62
2023/02/16 14:06:32;;;;;;;;;65.25;53.50;;;;;;;;6485443;39;8920;-60
2023/02/16 14:12:38;;;;;;;;;69.25;54.00;;;;;;;;6485798;39;8859;-61
2023/02/16 14:19:02;;;;;;;;;77.75;57.50;;;;;;;;6485760;31;9135;-59
2023/02/16 14:25:26;;;;;;;;;66.50;53.50;;;;;;;;6486089;39;8879;-61
2023/02/16 14:31:41;;;;;;;;;81.25;62.25;;;;;;;;6484837;39;9535;-62
2023/02/16 14:38:25;;;;;;;;;67.00;54.25;;;;;;;;6485653;39;8879;-60
2023/02/16 14:45:00;;;;;;;;;75.00;60.00;;;;;;;;6487853;31;8916;-59
2023/02/16 14:51:41;;;;;;;;;74.00;56.50;;;;;;;;6486820;46;8920;-60
2023/02/16 14:58:03;;;;;;;;;65.75;52.75;;;;;;;;6486663;31;8861;-59
2023/02/16 15:04:08;;;;;;;;;70.25;54.25;;;;;;;;6486135;39;8936;-60
2023/02/16 15:10:17;;;;;;;;;70.75;56.00;;;;;;;;6487073;31;9064;-61
2023/02/16 15:16:21;;;;;;;;;73.00;56.50;;;;;;;;6486067;46;8860;-60
2023/02/16 15:22:25;;;;;;;;;71.25;56.50;;;;;;;;6486492;46;8917;-61
2023/02/16 15:28:31;;;;;;;;;74.25;58.00;;;;;;;;6486931;46;8994;-59
2023/02/16 15:34:35;;;;;;;;;72.00;58.50;;;;;;;;6487524;39;8869;-61
2023/02/16 15:40:38;;;;;;;;;63.50;52.75;;;;;;;;6488247;31;8964;-61
2023/02/16 15:46:43;;;;;;;;;78.75;61.50;;;;;;;;6487415;46;8873;-60
2023/02/16 15:52:46;;;;;;;;;77.50;60.00;;;;;;;;6487616;39;8852;-59
2023/02/16 15:58:49;;;;;;;;;80.50;64.75;;;;;;;;6487133;39;9112;-61
2023/02/16 16:05:01;;;;;;;;;78.75;62.00;;;;;;;;6487516;31;8940;-61
2023/02/16 16:11:05;;;;;;;;;78.00;60.25;;;;;;;;6486619;46;9093;-62
2023/02/16 16:17:14;;;;;;;;;83.25;61.75;;;;;;;;6485335;39;9310;-59
2023/02/16 16:23:17;;;;;;;;;79.50;63.00;;;;;;;;6487553;39;9599;-60
2023/02/16 16:29:42;;;;;;;;;78.50;60.25;;;;;;;;6487324;46;8998;-60
2023/02/16 16:35:49;;;;;;;;;73.33;58.67;;;;;;;;6486648;39;8873;-61
2023/02/16 16:42:13;;;;;;;;;79.25;64.00;;;;;;;;6487987;39;8907;-61
2023/02/16 16:48:19;;;;;;;;;79.75;61.25;;;;;;;;6486953;46;9016;-59
2023/02/16 16:54:21;;;;;;;;;77.50;61.75;;;;;;;;6487348;31;8946;-60
2023/02/16 17:00:27;;;;;;;;;74.00;59.75;;;;;;;;6487008;39;8961;-60
2023/02/16 17:06:32;;;;;;;;;57.50;50.50;;;;;;;;6485527;39;8908;-59
2023/02/16 17:12:38;;;;;;;;;78.75;62.25;;;;;;;;6487825;39;8897;-61
2023/02/16 17:18:43;;;;;;;;;79.00;61.50;;;;;;;;6487219;39;8916;-60
2023/02/16 17:24:45;;;;;;;;;84.00;63.00;;;;;;;;6487770;39;8853;-61
2023/02/16 17:30:49;;;;;;;;;85.25;65.00;;;;;;;;6486645;31;8924;-60
2023/02/16 17:36:51;;;;;;;;;80.50;62.50;;;;;;;;6487204;46;8845;-59
2023/02/16 17:42:54;;;;;;;;;88.75;67.50;;;;;;;;6487047;47;8914;-60
2023/02/16 17:48:59;;;;;;;;;87.25;69.50;;;;;;;;6487301;39;8979;-60
2023/02/16 17:55:03;;;;;;;;;78.75;62.25;;;;;;;;6486946;31;8855;-59
2023/02/16 18:01:05;;;;;;;;;80.50;64.25;;;;;;;;6486988;39;9507;-58
2023/02/16 18:07:12;;;;;;;;;93.50;70.50;;;;;;;;6487069;31;8858;-59
2023/02/16 18:13:22;;;;;;;;;87.75;67.25;;;;;;;;6487661;39;8856;-61
2023/02/16 18:19:26;;;;;;;;;87.50;67.75;;;;;;;;6489667;36;8896;-60
2023/02/16 18:25:29;;;;;;;;;72.00;58.25;;;;;;;;6488243;39;8963;-61
2023/02/16 18:31:32;;;;;;;;;85.00;64.00;;;;;;;;6488945;46;8919;-62
2023/02/16 18:37:35;;;;;;;;;86.50;66.50;;;;;;;;6488472;31;8904;-61
2023/02/16 18:43:40;;;;;;;;;90.50;70.75;;;;;;;;6488253;46;8843;-60
2023/02/16 18:49:47;;;;;;;;;91.00;68.00;;;;;;;;6488560;46;9045;-61
2023/02/16 18:55:51;;;;;;;;;82.75;66.75;;;;;;;;6487804;46;8891;-60
2023/02/16 19:01:55;;;;;;;;;81.50;63.25;;;;;;;;6488518;39;8908;-59
2023/02/16 19:07:58;;;;;;;;;91.67;68.33;;;;;;;;6488282;46;8907;-58
2023/02/16 19:14:01;;;;;;;;;91.00;69.50;;;;;;;;6488768;39;8876;-61
2023/02/16 19:20:10;;;;;;;;;81.75;64.00;;;;;;;;6487665;31;9038;-59
2023/02/16 19:26:15;;;;;;;;;80.00;64.75;;;;;;;;6488122;46;8915;-59
2023/02/16 19:32:19;;;;;;;;;83.00;67.00;;;;;;;;6489665;36;8959;-60
2023/02/16 19:38:22;;;;;;;;;80.25;65.00;;;;;;;;6487570;46;8870;-58
2023/02/16 19:44:27;;;;;;;;;88.50;65.00;;;;;;;;6488917;39;8868;-60
2023/02/16 19:50:29;;;;;;;;;91.50;69.50;;;;;;;;6487813;46;8964;-59
2023/02/16 19:56:32;;;;;;;;;84.25;63.50;;;;;;;;6488444;31;8896;-61
2023/02/16 20:02:34;;;;;;;;;84.00;64.25;;;;;;;;6488114;39;8939;-59
2023/02/16 20:08:39;;;;;;;;;81.75;64.50;;;;;;;;6488406;39;9602;-59
2023/02/16 20:14:44;;;;;;;;;82.25;64.25;;;;;;;;6487185;31;8834;-60
2023/02/16 20:20:58;;;;;;;;;73.50;59.25;;;;;;;;6489340;31;8907;-61
2023/02/16 20:27:03;;;;;;;;;75.50;61.75;;;;;;;;6487137;46;8917;-59
2023/02/16 20:33:06;;;;;;;;;75.75;58.00;;;;;;;;6488063;39;8986;-61
2023/02/16 20:39:09;;;;;;;;;78.50;59.75;;;;;;;;6488577;31;8935;-59
2023/02/16 20:45:12;;;;;;;;;77.75;60.50;;;;;;;;6487863;39;8876;-60
2023/02/16 20:51:15;;;;;;;;;76.75;62.50;;;;;;;;6487247;46;9052;-60
2023/02/16 20:57:19;;;;;;;;;71.25;59.00;;;;;;;;6488041;39;8919;-58
2023/02/16 21:03:28;;;;;;;;;78.00;60.75;;;;;;;;6487324;31;9000;-60
2023/02/16 21:09:31;;;;;;;;;82.75;65.75;;;;;;;;6487859;39;8935;-59
2023/02/16 21:15:33;;;;;;;;;71.33;57.67;;;;;;;;6486646;39;8916;-60
2023/02/16 21:21:36;;;;;;;;;85.00;66.00;;;;;;;;6487519;39;8911;-61
2023/02/16 21:27:38;;;;;;;;;78.75;61.25;;;;;;;;6486877;31;8974;-60
2023/02/16 21:33:40;;;;;;;;;76.00;62.25;;;;;;;;6487570;31;8852;-60
2023/02/16 21:46:07;;;;;;;;;83.75;65.25;;;;;;;;6487110;39;8860;-59
2023/02/16 21:52:09;;;;;;;;;89.00;68.75;;;;;;;;6486588;31;8925;-58
2023/02/16 21:58:12;;;;;;;;;75.00;58.75;;;;;;;;6486732;39;8934;-59
2023/02/16 22:04:17;;;;;;;;;81.33;64.33;;;;;;;;6486888;39;9541;-58
2023/02/16 22:10:20;;;;;;;;;78.50;61.50;;;;;;;;6486606;47;8964;-59
2023/02/16 22:16:23;;;;;;;;;65.00;51.25;;;;;;;;6488176;36;8883;-61
2023/02/16 22:22:25;;;;;;;;;69.25;52.75;;;;;;;;6487592;39;8968;-59
2023/02/16 22:28:28;;;;;;;;;79.75;62.00;;;;;;;;6486587;39;8934;-59
2023/02/16 22:34:31;;;;;;;;;74.25;60.25;;;;;;;;6485666;31;8953;-59
2023/02/16 22:40:33;;;;;;;;;81.00;60.50;;;;;;;;6486408;39;8906;-60
2023/02/16 22:46:35;;;;;;;;;76.75;58.75;;;;;;;;6566330;31;8852;-61
2023/02/16 22:52:37;;;;;;;;;62.50;53.00;;;;;;;;6486291;39;8869;-58
2023/02/16 22:58:40;;;;;;;;;78.00;62.00;;;;;;;;6486376;47;8907;-62
2023/02/16 23:04:42;;;;;;;;;76.50;59.00;;;;;;;;6487648;39;8980;-60
2023/02/16 23:10:58;;;;;;;;;82.00;62.00;;;;;;;;6487407;46;8896;-59
2023/02/16 23:17:01;;;;;;;;;84.25;65.50;;;;;;;;6488127;31;9590;-59
2023/02/16 23:23:03;;;;;;;;;83.75;64.75;;;;;;;;6488133;31;9393;-60
2023/02/16 23:29:06;;;;;;;;;83.00;66.00;;;;;;;;6488783;39;9504;-60
2023/02/16 23:35:09;;;;;;;;;76.00;63.00;;;;;;;;6488673;31;8898;-59
2023/02/16 23:41:13;;;;;;;;;84.33;62.67;;;;;;;;6487857;39;9004;-58
2023/02/16 23:47:15;;;;;;;;;85.00;63.67;;;;;;;;6488153;46;8907;-59
2023/02/16 23:53:18;;;;;;;;;90.00;68.33;;;;;;;;6487778;39;8888;-59
2023/02/16 23:59:22;;;;;;;;;74.67;57.33;;;;;;;;6488248;39;8890;-58
